createdAt,value
2019-03-18T00:01:13.163Z,100189.98
2019-03-18T00:03:42.140Z,100196.11
2019-03-18T00:06:11.213Z,100195.12
2019-03-18T00:08:40.185Z,100206.20
2019-03-18T00:11:09.014Z,100205.48
2019-03-18T00:13:37.948Z,100210.00
2019-03-18T00:16:06.954Z,100212.89
2019-03-18T00:18:36.056Z,100211.05
2019-03-18T00:21:05.219Z,100217.13
2019-03-18T00:23:34.059Z,100214.95
2019-03-18T00:26:03.055Z,100215.94
2019-03-18T00:28:31.904Z,100228.11
2019-03-18T00:31:00.812Z,100223.41
2019-03-18T00:33:29.579Z,100228.11
2019-03-18T00:35:58.438Z,100230.95
2019-03-18T00:38:27.314Z,100244.09
2019-03-18T00:40:56.410Z,100244.09
2019-03-18T00:43:25.266Z,100241.95
2019-03-18T00:45:54.164Z,100248.08
2019-03-18T00:48:23.042Z,100249.94
2019-03-18T00:50:51.879Z,100256.34
2019-03-18T00:53:20.768Z,100249.28
2019-03-18T00:55:51.799Z,100248.36
2019-03-18T00:58:20.839Z,100236.88
2019-03-18T01:00:52.563Z,100247.20
2019-03-18T01:03:23.219Z,100240.41
2019-03-18T01:05:54.531Z,100248.80
2019-03-18T01:08:23.512Z,100249.31
2019-03-18T01:10:52.383Z,100246.17
2019-03-18T01:13:21.296Z,100245.54
2019-03-18T01:15:50.105Z,100246.16
2019-03-18T01:18:18.966Z,100239.47
2019-03-18T01:20:47.858Z,100242.73
2019-03-18T01:23:16.633Z,100242.72
2019-03-18T01:25:45.598Z,100234.91
2019-03-18T01:28:14.482Z,100240.47
2019-03-18T01:30:43.349Z,100240.13
2019-03-18T01:33:12.248Z,100238.97
2019-03-18T01:35:41.138Z,100235.16
2019-03-18T01:38:09.934Z,100247.91
2019-03-18T01:40:38.897Z,100238.70
2019-03-18T01:43:07.717Z,100239.06
2019-03-18T01:45:40.947Z,100241.08
2019-03-18T01:48:07.345Z,100231.48
2019-03-18T01:50:36.354Z,100230.85
2019-03-18T01:53:05.408Z,100233.24
2019-03-18T01:55:34.332Z,100230.69
2019-03-18T01:58:03.321Z,100222.46
2019-03-18T02:00:32.220Z,100215.82
2019-03-18T02:03:01.021Z,100227.20
2019-03-18T02:05:30.381Z,100234.54
2019-03-18T02:07:59.254Z,100216.48
2019-03-18T02:10:28.275Z,100230.44
2019-03-18T02:12:57.170Z,100223.02
2019-03-18T02:15:26.062Z,100225.30
2019-03-18T02:17:54.833Z,100225.84
2019-03-18T02:20:23.863Z,100226.30
2019-03-18T02:22:52.845Z,100234.20
2019-03-18T02:25:22.969Z,100232.84
2019-03-18T02:27:51.749Z,100240.55
2019-03-18T02:30:20.599Z,100241.90
2019-03-18T02:32:49.457Z,100246.23
2019-03-18T02:35:18.632Z,100252.92
2019-03-18T02:37:47.470Z,100257.67
2019-03-18T02:40:16.415Z,100260.37
2019-03-18T02:42:45.448Z,100257.22
2019-03-18T02:45:14.505Z,100259.54
2019-03-18T02:47:43.576Z,100256.35
2019-03-18T02:50:12.600Z,100260.70
2019-03-18T02:52:41.512Z,100261.86
2019-03-18T02:55:10.576Z,100261.78
2019-03-18T02:57:39.707Z,100261.41
2019-03-18T03:00:09.915Z,100267.27
2019-03-18T03:02:38.764Z,100267.88
2019-03-18T03:05:08.779Z,100273.19
2019-03-18T03:07:37.679Z,100277.77
2019-03-18T03:10:07.065Z,100278.68
2019-03-18T03:12:35.885Z,100283.23
2019-03-18T03:15:05.100Z,100284.87
2019-03-18T03:17:34.012Z,100288.74
2019-03-18T03:20:02.989Z,100292.93
2019-03-18T03:22:32.061Z,100285.98
2019-03-18T03:25:01.876Z,100280.00
2019-03-18T03:27:30.763Z,100286.30
2019-03-18T03:29:59.532Z,100288.20
2019-03-18T03:32:28.439Z,100292.27
2019-03-18T03:34:57.395Z,100289.29
2019-03-18T03:37:26.260Z,100292.27
2019-03-18T03:39:55.167Z,100290.70
2019-03-18T03:42:24.065Z,100297.33
2019-03-18T03:44:52.979Z,100300.31
2019-03-18T03:47:21.960Z,100303.30
2019-03-18T03:49:50.773Z,100299.94
2019-03-18T03:52:19.771Z,100293.36
2019-03-18T03:54:48.779Z,100302.02
2019-03-18T03:57:17.781Z,100306.65
2019-03-18T03:59:46.776Z,100309.63
2019-03-18T04:02:15.851Z,100303.95
2019-03-18T04:04:44.740Z,100295.17
2019-03-18T04:07:14.293Z,100297.98
2019-03-18T04:09:43.227Z,100315.55
2019-03-18T04:12:12.257Z,100313.19
2019-03-18T04:14:41.212Z,100308.92
2019-03-18T04:17:10.117Z,100312.70
2019-03-18T04:19:39.054Z,100308.05
2019-03-18T04:22:07.936Z,100302.31
2019-03-18T04:24:36.985Z,100302.63
2019-03-18T04:27:05.907Z,100305.95
2019-03-18T04:29:34.757Z,100311.48
2019-03-18T04:32:03.665Z,100312.53
2019-03-18T04:34:32.433Z,100311.98
2019-03-18T04:37:01.253Z,100321.16
2019-03-18T04:39:31.502Z,100334.77
2019-03-18T04:42:00.434Z,100331.13
2019-03-18T04:44:29.348Z,100341.08
2019-03-18T04:46:58.279Z,100339.48
2019-03-18T04:49:27.581Z,100355.22
2019-03-18T04:51:56.461Z,100356.20
2019-03-18T04:54:25.332Z,100349.47
2019-03-18T04:56:54.250Z,100357.15
2019-03-18T04:59:23.121Z,100359.14
2019-03-18T05:01:52.009Z,100362.84
2019-03-18T05:04:20.903Z,100360.89
2019-03-18T05:06:49.702Z,100372.56
2019-03-18T05:09:18.612Z,100368.19
2019-03-18T05:11:47.594Z,100368.41
2019-03-18T05:14:16.695Z,100374.59
2019-03-18T05:16:45.578Z,100382.05
2019-03-18T05:19:14.366Z,100379.34
2019-03-18T05:21:43.243Z,100380.18
2019-03-18T05:24:12.027Z,100385.31
2019-03-18T05:26:40.797Z,100389.28
2019-03-18T05:29:09.792Z,100383.84
2019-03-18T05:31:38.657Z,100389.75
2019-03-18T05:34:07.481Z,100390.58
2019-03-18T05:36:36.360Z,100392.50
2019-03-18T05:39:06.872Z,100399.15
2019-03-18T05:41:35.687Z,100398.42
2019-03-18T05:44:04.711Z,100405.97
2019-03-18T05:46:33.661Z,100416.55
2019-03-18T05:49:02.632Z,100418.84
2019-03-18T05:51:31.442Z,100411.33
2019-03-18T05:54:00.245Z,100418.44
2019-03-18T05:56:29.181Z,100422.40
2019-03-18T05:58:58.099Z,100424.05
2019-03-18T06:01:27.113Z,100420.27
2019-03-18T06:03:56.037Z,100423.31
2019-03-18T06:06:24.851Z,100424.50
2019-03-18T06:08:53.845Z,100424.50
2019-03-18T06:11:22.643Z,100424.06
2019-03-18T06:13:51.566Z,100423.87
2019-03-18T06:16:20.446Z,100419.87
2019-03-18T06:18:49.308Z,100428.17
2019-03-18T06:21:18.184Z,100431.05
2019-03-18T06:23:47.125Z,100449.09
2019-03-18T06:26:16.064Z,100451.91
2019-03-18T06:28:45.006Z,100449.60
2019-03-18T06:31:13.848Z,100456.45
2019-03-18T06:33:42.743Z,100457.13
2019-03-18T06:36:11.686Z,100462.52
2019-03-18T06:38:40.770Z,100467.69
2019-03-18T06:41:11.556Z,100468.88
2019-03-18T06:43:40.480Z,100475.08
2019-03-18T06:46:09.401Z,100474.69
2019-03-18T06:48:38.325Z,100491.04
2019-03-18T06:51:08.689Z,100491.05
2019-03-18T06:53:40.005Z,100503.61
2019-03-18T06:56:08.610Z,100502.11
2019-03-18T06:58:37.632Z,100510.12
2019-03-18T07:01:06.554Z,100512.64
2019-03-18T07:03:35.534Z,100512.64
2019-03-18T07:06:04.623Z,100515.64
2019-03-18T07:08:33.897Z,100522.83
2019-03-18T07:11:02.778Z,100511.80
2019-03-18T07:13:31.775Z,100503.83
2019-03-18T07:16:00.684Z,100503.79
2019-03-18T07:18:29.660Z,100497.91
2019-03-18T07:20:58.685Z,100504.83
2019-03-18T07:23:27.476Z,100504.42
2019-03-18T07:25:56.315Z,100500.11
2019-03-18T07:28:25.320Z,100503.27
2019-03-18T07:30:54.180Z,100501.80
2019-03-18T07:33:23.119Z,100506.12
2019-03-18T07:35:51.960Z,100509.14
2019-03-18T07:38:20.961Z,100513.27
2019-03-18T07:40:49.773Z,100519.13
2019-03-18T07:43:18.675Z,100528.50
2019-03-18T07:45:47.616Z,100525.55
2019-03-18T07:48:16.398Z,100518.96
2019-03-18T07:50:45.268Z,100527.97
2019-03-18T07:53:14.301Z,100536.64
2019-03-18T07:55:43.294Z,100537.95
2019-03-18T07:58:12.241Z,100523.98
2019-03-18T08:00:41.166Z,100538.95
2019-03-18T08:03:10.659Z,100550.93
2019-03-18T08:05:39.655Z,100554.73
2019-03-18T08:08:08.577Z,100573.88
2019-03-18T08:10:37.567Z,100563.22
2019-03-18T08:13:06.460Z,100570.21
2019-03-18T08:15:35.338Z,100579.72
2019-03-18T08:18:04.336Z,100571.55
2019-03-18T08:20:33.203Z,100571.57
2019-03-18T08:23:02.129Z,100571.22
2019-03-18T08:25:31.091Z,100589.01
2019-03-18T08:28:00.059Z,100595.35
2019-03-18T08:30:28.917Z,100608.34
2019-03-18T08:32:57.990Z,100602.83
2019-03-18T08:35:26.919Z,100617.52
2019-03-18T08:37:55.791Z,100619.84
2019-03-18T08:40:24.681Z,100619.35
2019-03-18T08:42:53.663Z,100626.48
2019-03-18T08:45:22.565Z,100623.44
2019-03-18T08:47:51.439Z,100618.75
2019-03-18T08:50:20.435Z,100616.11
2019-03-18T08:52:49.310Z,100617.74
2019-03-18T08:55:18.333Z,100624.41
2019-03-18T08:57:47.193Z,100625.77
2019-03-18T09:00:16.623Z,100629.06
2019-03-18T09:02:45.590Z,100633.03
2019-03-18T09:05:14.517Z,100637.75
2019-03-18T09:07:43.474Z,100629.31
2019-03-18T09:10:12.981Z,100637.88
2019-03-18T09:12:42.064Z,100642.83
2019-03-18T09:15:11.170Z,100649.19
2019-03-18T09:17:40.179Z,100648.17
2019-03-18T09:20:09.850Z,100630.04
2019-03-18T09:22:38.919Z,100651.70
2019-03-18T09:25:08.304Z,100659.67
2019-03-18T09:27:37.227Z,100659.67
2019-03-18T09:30:06.699Z,100654.61
2019-03-18T09:32:35.751Z,100665.00
2019-03-18T09:35:05.028Z,100666.55
2019-03-18T09:37:33.849Z,100676.03
2019-03-18T09:40:02.855Z,100676.03
2019-03-18T09:42:31.622Z,100689.73
2019-03-18T09:45:00.820Z,100673.98
2019-03-18T09:47:29.787Z,100706.62
2019-03-18T09:49:58.776Z,100726.56
2019-03-18T09:52:27.627Z,100700.25
2019-03-18T09:54:56.634Z,100698.95
2019-03-18T09:57:26.587Z,100697.77
2019-03-18T09:59:55.646Z,100693.42
2019-03-18T10:02:24.453Z,100638.33
2019-03-18T10:04:53.296Z,100696.74
2019-03-18T10:07:22.147Z,100699.57
2019-03-18T10:09:50.958Z,100696.66
2019-03-18T10:12:19.964Z,100692.91
2019-03-18T10:14:48.981Z,100697.92
2019-03-18T10:17:18.060Z,100703.04
2019-03-18T10:19:47.008Z,100697.97
2019-03-18T10:22:16.011Z,100693.27
2019-03-18T10:24:44.888Z,100695.03
2019-03-18T10:27:13.641Z,100695.03
2019-03-18T10:29:42.554Z,100707.55
2019-03-18T10:32:11.427Z,100703.52
2019-03-18T10:34:40.385Z,100700.98
2019-03-18T10:37:09.374Z,100702.84
2019-03-18T10:39:38.281Z,100706.92
2019-03-18T10:42:07.173Z,100703.14
2019-03-18T10:44:38.101Z,100706.42
2019-03-18T10:47:06.893Z,100705.71
2019-03-18T10:49:45.485Z,100697.31
2019-03-18T10:52:06.629Z,100710.81
2019-03-18T10:54:35.662Z,100706.33
2019-03-18T10:57:04.578Z,100705.37
2019-03-18T10:59:33.461Z,100713.18
2019-03-18T11:02:02.460Z,100716.98
2019-03-18T11:04:31.415Z,100732.58
2019-03-18T11:07:00.316Z,100731.44
2019-03-18T11:09:29.302Z,100733.77
2019-03-18T11:11:58.348Z,100737.75
2019-03-18T11:14:27.274Z,100731.93
2019-03-18T11:16:56.257Z,100733.75
2019-03-18T11:19:25.170Z,100743.51
2019-03-18T11:21:55.189Z,100734.89
2019-03-18T11:24:24.162Z,100739.34
2019-03-18T11:26:55.404Z,100729.66
2019-03-18T11:29:24.039Z,100726.92
2019-03-18T11:31:53.119Z,100735.49
2019-03-18T11:34:22.026Z,100713.97
2019-03-18T11:36:51.109Z,100721.72
2019-03-18T11:39:19.917Z,100719.78
2019-03-18T11:41:48.918Z,100715.70
2019-03-18T11:44:18.070Z,100675.28
2019-03-18T11:46:46.981Z,100702.88
2019-03-18T11:49:15.862Z,100700.63
2019-03-18T11:51:44.764Z,100702.67
2019-03-18T11:54:13.651Z,100698.77
2019-03-18T11:56:42.712Z,100699.00
2019-03-18T11:59:12.033Z,100697.50
2019-03-18T12:01:40.950Z,100708.17
2019-03-18T12:04:09.818Z,100707.24
2019-03-18T12:06:38.837Z,100707.13
2019-03-18T12:09:08.314Z,100697.46
2019-03-18T12:11:37.254Z,100662.94
2019-03-18T12:14:06.259Z,100691.74
2019-03-18T12:16:36.124Z,100694.70
2019-03-18T12:19:05.049Z,100701.48
2019-03-18T12:21:34.059Z,100702.56
2019-03-18T12:24:03.038Z,100702.77
2019-03-18T12:26:31.899Z,100699.86
2019-03-18T12:29:00.831Z,100697.87
2019-03-18T12:31:29.854Z,100699.08
2019-03-18T12:33:58.720Z,100714.77
2019-03-18T12:36:28.092Z,100730.95
2019-03-18T12:38:56.983Z,100714.49
2019-03-18T12:41:25.763Z,100722.91
2019-03-18T12:43:54.647Z,100711.84
2019-03-18T12:46:23.520Z,100710.50
2019-03-18T12:48:52.455Z,100712.30
2019-03-18T12:51:21.443Z,100719.25
2019-03-18T12:53:50.888Z,100721.84
2019-03-18T12:56:19.880Z,100719.78
2019-03-18T12:58:48.751Z,100716.39
2019-03-18T13:01:17.744Z,100708.88
2019-03-18T13:03:46.708Z,100708.88
2019-03-18T13:06:15.621Z,100697.46
2019-03-18T13:08:44.564Z,100699.81
2019-03-18T13:11:13.558Z,100703.32
2019-03-18T13:13:42.562Z,100688.33
2019-03-18T13:16:11.654Z,100686.30
2019-03-18T13:18:40.582Z,100691.34
2019-03-18T13:21:09.672Z,100690.39
2019-03-18T13:23:38.761Z,100694.13
2019-03-18T13:26:07.653Z,100699.61
2019-03-18T13:28:36.537Z,100682.13
2019-03-18T13:31:05.928Z,100680.95
2019-03-18T13:33:34.852Z,100707.53
2019-03-18T13:36:03.915Z,100712.56
2019-03-18T13:38:32.863Z,100715.88
2019-03-18T13:41:01.805Z,100717.53
2019-03-18T13:43:30.682Z,100724.48
2019-03-18T13:45:59.663Z,100722.45
2019-03-18T13:48:28.624Z,100730.36
2019-03-18T13:50:57.511Z,100735.19
2019-03-18T13:53:26.407Z,100721.46
2019-03-18T13:55:55.416Z,100732.36
2019-03-18T13:58:24.390Z,100723.56
2019-03-18T14:00:53.485Z,100725.48
2019-03-18T14:03:22.450Z,100730.27
2019-03-18T14:05:51.447Z,100726.16
2019-03-18T14:08:20.341Z,100733.13
2019-03-18T14:10:49.639Z,100735.77
2019-03-18T14:13:18.603Z,100726.98
2019-03-18T14:15:47.501Z,100728.98
2019-03-18T14:18:17.452Z,100726.91
2019-03-18T14:20:46.504Z,100738.09
2019-03-18T14:23:15.428Z,100723.36
2019-03-18T14:25:45.571Z,100722.99
2019-03-18T14:28:14.850Z,100741.26
2019-03-18T14:30:43.906Z,100735.16
2019-03-18T14:33:12.858Z,100763.77
2019-03-18T14:35:42.113Z,100754.44
2019-03-18T14:38:11.467Z,100739.37
2019-03-18T14:40:40.359Z,100732.44
2019-03-18T14:43:09.514Z,100724.39
2019-03-18T14:45:38.578Z,100730.28
2019-03-18T14:48:07.637Z,100734.86
2019-03-18T14:50:36.571Z,100739.69
2019-03-18T14:53:05.455Z,100734.63
2019-03-18T14:55:34.287Z,100731.31
2019-03-18T14:58:03.587Z,100738.94
2019-03-18T15:00:32.590Z,100740.36
2019-03-18T15:03:01.549Z,100739.85
2019-03-18T15:05:30.552Z,100734.69
2019-03-18T15:08:01.910Z,100729.00
2019-03-18T15:10:32.832Z,100725.36
2019-03-18T15:13:02.011Z,100732.36
2019-03-18T15:15:31.064Z,100724.09
2019-03-18T15:18:00.057Z,100729.92
2019-03-18T15:20:29.204Z,100743.52
2019-03-18T15:22:58.337Z,100740.06
2019-03-18T15:25:27.547Z,100759.09
2019-03-18T15:27:56.648Z,100749.05
2019-03-18T15:30:25.611Z,100760.88
2019-03-18T15:32:54.494Z,100773.36
2019-03-18T15:35:23.469Z,100769.94
2019-03-18T15:37:52.460Z,100769.04
2019-03-18T15:40:21.457Z,100774.59
2019-03-18T15:42:50.409Z,100772.35
2019-03-18T15:45:19.371Z,100775.91
2019-03-18T15:47:48.248Z,100776.00
2019-03-18T15:50:17.552Z,100770.52
2019-03-18T15:52:46.517Z,100761.09
2019-03-18T15:55:15.711Z,100774.50
2019-03-18T15:57:44.663Z,100769.16
2019-03-18T16:00:15.382Z,100770.07
2019-03-18T16:02:44.245Z,100778.66
2019-03-18T16:05:13.327Z,100771.18
2019-03-18T16:07:42.405Z,100773.44
2019-03-18T16:10:12.085Z,100775.24
2019-03-18T16:12:41.033Z,100785.45
2019-03-18T16:15:10.660Z,100782.79
2019-03-18T16:17:41.651Z,100794.24
2019-03-18T16:20:11.821Z,100798.75
2019-03-18T16:22:40.755Z,100797.36
2019-03-18T16:25:09.940Z,100795.89
2019-03-18T16:27:39.789Z,100801.92
2019-03-18T16:30:10.380Z,100806.70
2019-03-18T16:32:39.388Z,100806.97
2019-03-18T16:35:09.108Z,100817.74
2019-03-18T16:37:38.013Z,100815.91
2019-03-18T16:40:07.735Z,100827.59
2019-03-18T16:42:36.701Z,100831.48
2019-03-18T16:45:06.097Z,100827.70
2019-03-18T16:47:35.918Z,100837.66
2019-03-18T16:50:05.610Z,100828.35
2019-03-18T16:52:35.955Z,100838.55
2019-03-18T16:55:05.405Z,100842.80
2019-03-18T16:57:34.421Z,100848.44
2019-03-18T17:00:03.326Z,100847.44
2019-03-18T17:02:32.246Z,100846.42
2019-03-18T17:05:03.225Z,100847.63
2019-03-18T17:07:32.108Z,100859.05
2019-03-18T17:10:01.037Z,100866.25
2019-03-18T17:12:29.822Z,100875.00
2019-03-18T17:14:58.634Z,100875.08
2019-03-18T17:17:27.549Z,100874.08
2019-03-18T17:19:57.749Z,100889.59
2019-03-18T17:22:27.279Z,100884.58
2019-03-18T17:24:56.438Z,100891.52
2019-03-18T17:27:25.477Z,100887.70
2019-03-18T17:29:54.513Z,100893.47
2019-03-18T17:32:23.476Z,100903.20
2019-03-18T17:34:52.438Z,100908.88
2019-03-18T17:37:21.436Z,100914.59
2019-03-18T17:39:50.451Z,100909.93
2019-03-18T17:42:19.330Z,100914.63
2019-03-18T17:44:48.291Z,100921.31
2019-03-18T17:47:17.224Z,100924.20
2019-03-18T17:49:46.195Z,100928.70
2019-03-18T17:52:15.317Z,100928.41
2019-03-18T17:54:44.867Z,100933.42
2019-03-18T17:57:13.795Z,100939.44
2019-03-18T17:59:42.706Z,100940.48
2019-03-18T18:02:11.698Z,100946.97
2019-03-18T18:04:40.570Z,100947.31
2019-03-18T18:07:09.664Z,100955.15
2019-03-18T18:09:38.451Z,100967.52
2019-03-18T18:12:07.465Z,100956.67
2019-03-18T18:14:36.356Z,100961.36
2019-03-18T18:17:05.333Z,100969.17
2019-03-18T18:19:34.242Z,100972.50
2019-03-18T18:22:03.259Z,100969.85
2019-03-18T18:24:32.086Z,100972.02
2019-03-18T18:27:01.004Z,100971.19
2019-03-18T18:29:29.890Z,100969.70
2019-03-18T18:31:58.797Z,100972.17
2019-03-18T18:34:27.602Z,100982.83
2019-03-18T18:36:59.996Z,100989.86
2019-03-18T18:39:28.977Z,100989.69
2019-03-18T18:41:57.963Z,100990.83
2019-03-18T18:44:26.819Z,101003.16
2019-03-18T18:46:55.852Z,101003.77
2019-03-18T18:49:24.742Z,101012.05
2019-03-18T18:51:53.667Z,101008.92
2019-03-18T18:54:22.629Z,101015.34
2019-03-18T18:56:51.570Z,101017.50
2019-03-18T18:59:20.514Z,101015.14
2019-03-18T19:01:49.526Z,101022.50
2019-03-18T19:04:18.999Z,101020.57
2019-03-18T19:06:48.970Z,101021.86
2019-03-18T19:09:17.875Z,101021.86
2019-03-18T19:11:47.429Z,101029.99
2019-03-18T19:14:16.327Z,101040.19
2019-03-18T19:16:45.223Z,101041.86
2019-03-18T19:19:14.181Z,101046.48
2019-03-18T19:21:43.237Z,101046.44
2019-03-18T19:24:12.194Z,101043.39
2019-03-18T19:26:41.035Z,101049.22
2019-03-18T19:29:09.839Z,101055.33
2019-03-18T19:31:39.007Z,101052.08
2019-03-18T19:34:07.991Z,101071.43
2019-03-18T19:36:36.863Z,101067.27
2019-03-18T19:39:07.293Z,101077.20
2019-03-18T19:41:36.291Z,101070.20
2019-03-18T19:44:05.268Z,101073.70
2019-03-18T19:46:34.147Z,101074.08
2019-03-18T19:49:03.096Z,101075.56
2019-03-18T19:51:31.976Z,101086.27
2019-03-18T19:54:00.970Z,101083.73
2019-03-18T19:56:30.005Z,101081.98
2019-03-18T19:58:59.039Z,101083.57
2019-03-18T20:01:27.957Z,101077.83
2019-03-18T20:03:56.976Z,101090.39
2019-03-18T20:06:25.917Z,101090.30
2019-03-18T20:08:55.027Z,101090.05
2019-03-18T20:11:23.976Z,101096.64
2019-03-18T20:13:52.947Z,101096.64
2019-03-18T20:16:21.855Z,101097.71
2019-03-18T20:18:50.795Z,101102.44
2019-03-18T20:21:19.826Z,101109.55
2019-03-18T20:24:00.086Z,101114.79
2019-03-18T20:26:19.355Z,101113.88
2019-03-18T20:28:48.378Z,101111.94
2019-03-18T20:31:25.441Z,101122.27
2019-03-18T20:33:47.836Z,101120.45
2019-03-18T20:36:16.890Z,101126.06
2019-03-18T20:38:45.793Z,101125.50
2019-03-18T20:41:14.663Z,101126.48
2019-03-18T20:43:43.753Z,101127.89
2019-03-18T20:46:12.677Z,101126.52
2019-03-18T20:48:41.622Z,101134.75
2019-03-18T20:51:10.494Z,101135.09
2019-03-18T20:53:39.383Z,101136.42
2019-03-18T20:56:08.312Z,101139.38
2019-03-18T20:58:37.233Z,101148.03
2019-03-18T21:01:12.736Z,101147.50
2019-03-18T21:03:41.687Z,101152.36
2019-03-18T21:06:11.180Z,101158.05
2019-03-18T21:08:40.162Z,101145.33
2019-03-18T21:11:09.132Z,101161.41
2019-03-18T21:13:38.171Z,101164.78
2019-03-18T21:16:07.212Z,101161.82
2019-03-18T21:18:36.120Z,101168.65
2019-03-18T21:21:05.286Z,101169.90
2019-03-18T21:23:34.257Z,101175.86
2019-03-18T21:26:03.139Z,101173.39
2019-03-18T21:28:40.697Z,101172.41
2019-03-18T21:31:02.789Z,101177.65
2019-03-18T21:33:31.690Z,101179.64
2019-03-18T21:36:00.562Z,101184.41
2019-03-18T21:38:29.465Z,101183.72
2019-03-18T21:40:58.472Z,101183.56
2019-03-18T21:43:27.453Z,101183.77
2019-03-18T21:45:56.442Z,101186.08
2019-03-18T21:48:26.657Z,101189.99
2019-03-18T21:50:55.590Z,101191.94
2019-03-18T21:53:24.717Z,101186.83
2019-03-18T21:55:55.230Z,101189.29
2019-03-18T21:58:24.177Z,101185.52
2019-03-18T22:00:53.100Z,101199.22
2019-03-18T22:03:21.989Z,101139.61
2019-03-18T22:05:50.864Z,101209.91
2019-03-18T22:08:19.711Z,101208.44
2019-03-18T22:10:48.748Z,101212.63
2019-03-18T22:13:17.686Z,101212.25
2019-03-18T22:15:46.715Z,101212.02
2019-03-18T22:18:15.601Z,101218.30
2019-03-18T22:20:44.646Z,101211.81
2019-03-18T22:23:13.552Z,101225.42
2019-03-18T22:25:42.336Z,101178.14
2019-03-18T22:28:11.288Z,101223.55
2019-03-18T22:30:40.075Z,101211.90
2019-03-18T22:33:08.953Z,101206.84
2019-03-18T22:35:37.848Z,101210.47
2019-03-18T22:38:06.765Z,101208.80
2019-03-18T22:40:35.673Z,101217.17
2019-03-18T22:43:04.709Z,101218.02
2019-03-18T22:45:33.543Z,101211.12
2019-03-18T22:48:02.479Z,101213.48
2019-03-18T22:50:31.521Z,101210.97
2019-03-18T22:53:00.360Z,101217.20
2019-03-18T22:55:29.146Z,101222.20
2019-03-18T22:57:58.282Z,101230.47
2019-03-18T23:00:47.051Z,101233.98
2019-03-18T23:03:16.167Z,101230.40
2019-03-18T23:05:45.094Z,101236.20
2019-03-18T23:08:13.899Z,101232.64
2019-03-18T23:10:42.973Z,101235.08
2019-03-18T23:13:11.940Z,101243.40
2019-03-18T23:15:40.786Z,101247.58
2019-03-18T23:18:09.756Z,101243.87
2019-03-18T23:20:38.714Z,101248.79
2019-03-18T23:23:07.549Z,101259.59
2019-03-18T23:25:36.661Z,101258.27
2019-03-18T23:28:05.599Z,101263.29
2019-03-18T23:30:34.542Z,101260.41
2019-03-18T23:33:03.432Z,101251.58
2019-03-18T23:35:32.288Z,101265.25
2019-03-18T23:38:01.185Z,101257.67
2019-03-18T23:40:30.214Z,101258.30
2019-03-18T23:42:59.012Z,101258.58
2019-03-18T23:45:28.003Z,101260.04
2019-03-18T23:47:57.028Z,101260.39
2019-03-18T23:50:25.851Z,101259.41
2019-03-18T23:52:54.834Z,101271.72
2019-03-18T23:55:23.701Z,101273.26
2019-03-18T23:57:54.407Z,101273.83
